Terminal Aerodrome Forecast
Issued by NWS Amarillo, TX

Home | Current Version | Previous Version | Text Only | Print | Product List | Glossary On
Versions: 1 2 3 4 5 6 7 8 9 10 11 12 13 14 15 16 17 18
000
FTUS44 KAMA 291403 AAA
TAFAMA
TAF AMD
KAMA 291403Z 2914/3012 30014G24KT P6SM VCTS SCT060CB BKN110
      TEMPO 2914/2915 -TSRA
     FM291600 18013KT P6SM SCT100
     FM292000 18012KT P6SM SCT080
     FM300200 15014KT P6SM BKN080 PROB30 3002/3008 4SM TSRA OVC040CB
     FM300800 18010KT P6SM BKN100=

USA.gov is the U.S. government's official web portal to all federal, state and local government web resources and services.